Time;durP1;ratioP1;P1;durP2;ratioP2;P2;SDS_P1;SDS_P2;PMS_P1;PMS_P2;Temp;Humidity;BMP_temperature;BMP_pressure;BME280_temperature;BME280_humidity;BME280_pressure;Samples;Min_cycle;Max_cycle;Signal;HPM_P1;HPM_P2
2022/03/28 00:01:53;;;;;;;;;;;6.30;99.90;;;;;;5054330;28;20405;-78
2022/03/28 00:04:19;;;;;;;;;;;6.30;99.90;;;;;;5055315;28;19924;-78
2022/03/28 00:06:44;;;;;;;;;;;6.20;99.90;;;;;;5055141;28;19977;-78
2022/03/28 00:09:10;;;;;;;;;;;6.20;99.90;;;;;;5054924;28;19928;-78
2022/03/28 00:11:35;;;;;;;;;;;6.10;99.90;;;;;;5055144;28;19966;-77
2022/03/28 00:14:01;;;;;;;;;;;6.20;99.90;;;;;;5038843;28;19920;-77
2022/03/28 00:16:27;;;;;;;;;;;6.10;99.90;;;;;;5045499;28;19921;-77
2022/03/28 00:18:52;;;;;;;;;;;6.20;99.90;;;;;;5046396;28;19924;-78
2022/03/28 00:21:18;;;;;;;;;;;6.10;99.90;;;;;;5055442;28;19967;-78
2022/03/28 00:23:44;;;;;;;;;;;6.20;99.90;;;;;;5055513;28;19920;-78
2022/03/28 00:26:10;;;;;;;;;;;6.10;99.90;;;;;;5055092;28;19966;-77
2022/03/28 00:28:35;;;;;;;;;;;6.20;99.90;;;;;;5054943;28;20333;-77
2022/03/28 00:31:01;;;;;;;;;;;6.20;99.90;;;;;;5036075;28;19954;-77
2022/03/28 00:33:26;;;;;;;;;;;6.10;99.90;;;;;;5055350;28;19920;-77
2022/03/28 00:35:52;;;;;;;;;;;6.20;99.90;;;;;;5055063;28;19968;-77
2022/03/28 00:38:17;;;;;;;;;;;6.20;99.90;;;;;;5055367;28;19925;-77
2022/03/28 00:40:43;;;;;;;;;;;6.20;99.90;;;;;;5054524;28;19920;-77
2022/03/28 00:43:09;;;;;;;;;;;6.20;99.90;;;;;;5029701;28;20019;-77
2022/03/28 00:45:35;;;;;;;;;;;6.30;99.90;;;;;;5052184;28;19927;-80
2022/03/28 00:48:02;;;;;;;;;;;6.30;99.90;;;;;;5048336;28;19920;-78
2022/03/28 00:50:31;;;;;;;;;;;6.30;99.90;;;;;;5038092;28;20015;-77
2022/03/28 00:52:57;;;;;;;;;;;6.30;99.90;;;;;;5055509;28;19920;-77
2022/03/28 00:55:23;;;;;;;;;;;6.30;99.90;;;;;;5055172;28;19920;-77
2022/03/28 00:57:48;;;;;;;;;;;6.30;99.90;;;;;;5055060;28;20042;-77
2022/03/28 01:00:14;;;;;;;;;;;6.30;99.90;;;;;;5055024;28;19924;-77
2022/03/28 01:02:40;;;;;;;;;;;6.40;99.90;;;;;;5054625;28;19927;-77
2022/03/28 01:05:06;;;;;;;;;;;6.40;99.90;;;;;;5054824;28;19920;-77
2022/03/28 01:07:31;;;;;;;;;;;6.30;99.90;;;;;;5038317;28;20297;-78
2022/03/28 01:09:59;;;;;;;;;;;6.40;99.90;;;;;;5054757;28;20390;-77
2022/03/28 01:12:31;;;;;;;;;;;6.40;99.90;;;;;;5038574;28;19961;-77
2022/03/28 01:14:57;;;;;;;;;;;6.40;99.90;;;;;;5053561;28;19928;-77
2022/03/28 01:20:07;;;;;;;;;;;6.40;99.90;;;;;;5034509;28;19921;-77
2022/03/28 01:22:32;;;;;;;;;;;6.30;99.90;;;;;;5034750;28;19927;-78
2022/03/28 01:24:59;;;;;;;;;;;6.30;99.90;;;;;;5035270;28;19980;-77
2022/03/28 01:27:25;;;;;;;;;;;6.20;99.90;;;;;;5046209;28;19950;-77
2022/03/28 01:29:50;;;;;;;;;;;6.30;99.90;;;;;;5054123;28;19924;-78
2022/03/28 01:32:16;;;;;;;;;;;6.30;99.90;;;;;;5045626;28;19925;-77
2022/03/28 01:34:41;;;;;;;;;;;6.30;99.90;;;;;;5053548;28;19926;-77
2022/03/28 01:37:07;;;;;;;;;;;6.30;99.90;;;;;;5054026;28;19921;-78
2022/03/28 01:39:32;;;;;;;;;;;6.30;99.90;;;;;;5054426;28;19931;-77
2022/03/28 01:41:58;;;;;;;;;;;6.30;99.90;;;;;;5038098;28;19920;-77
2022/03/28 01:44:24;;;;;;;;;;;6.30;99.90;;;;;;5054570;28;20267;-77
2022/03/28 01:46:50;;;;;;;;;;;6.30;99.90;;;;;;5052551;28;19931;-77
2022/03/28 01:49:16;;;;;;;;;;;6.30;99.90;;;;;;5054232;28;19965;-78
2022/03/28 01:51:42;;;;;;;;;;;6.40;99.90;;;;;;5054297;28;19999;-78
2022/03/28 01:54:08;;;;;;;;;;;6.40;99.90;;;;;;5053919;28;20011;-77
2022/03/28 01:56:34;;;;;;;;;;;6.40;99.90;;;;;;5058137;28;19964;-79
2022/03/28 01:59:00;;;;;;;;;;;6.40;99.90;;;;;;5058528;28;20015;-79
2022/03/28 02:01:26;;;;;;;;;;;6.40;99.90;;;;;;5049312;28;19920;-78
2022/03/28 02:03:51;;;;;;;;;;;6.30;99.90;;;;;;5041018;28;20007;-77
2022/03/28 02:06:17;;;;;;;;;;;6.40;99.90;;;;;;5057853;28;19944;-77
2022/03/28 02:08:42;;;;;;;;;;;6.40;99.90;;;;;;5058140;28;19920;-78
2022/03/28 02:11:07;;;;;;;;;;;6.40;99.90;;;;;;5041504;28;19920;-77
2022/03/28 02:13:33;;;;;;;;;;;6.40;99.90;;;;;;5058635;28;19927;-77
2022/03/28 02:16:00;;;;;;;;;;;6.40;99.90;;;;;;5049495;28;20315;-77
2022/03/28 02:18:26;;;;;;;;;;;6.50;99.90;;;;;;5058020;28;19960;-77
2022/03/28 02:20:52;;;;;;;;;;;6.50;99.90;;;;;;5057175;28;20389;-77
2022/03/28 02:23:17;;;;;;;;;;;6.50;99.90;;;;;;5049443;28;20279;-77
2022/03/28 02:25:42;;;;;;;;;;;6.40;99.90;;;;;;5058187;28;20048;-77
2022/03/28 02:28:08;;;;;;;;;;;6.40;99.90;;;;;;5058051;28;20234;-77
2022/03/28 02:30:34;;;;;;;;;;;6.30;99.90;;;;;;5057840;28;20358;-77
2022/03/28 02:32:59;;;;;;;;;;;6.40;99.90;;;;;;5055476;28;20397;-78
2022/03/28 02:35:25;;;;;;;;;;;6.40;99.90;;;;;;5041067;28;19924;-77
2022/03/28 02:37:50;;;;;;;;;;;6.50;99.90;;;;;;5057222;28;19931;-77
2022/03/28 02:40:16;;;;;;;;;;;6.40;99.90;;;;;;5041123;28;19921;-77
2022/03/28 02:42:42;;;;;;;;;;;6.40;99.90;;;;;;5056953;28;20350;-77
2022/03/28 02:45:08;;;;;;;;;;;6.40;99.90;;;;;;5055854;28;19921;-77
2022/03/28 02:47:33;;;;;;;;;;;6.40;99.90;;;;;;5055641;28;19989;-77
2022/03/28 02:49:59;;;;;;;;;;;6.30;99.90;;;;;;5057160;28;20346;-77
2022/03/28 02:52:25;;;;;;;;;;;6.30;99.90;;;;;;5056972;28;19980;-77
2022/03/28 02:54:50;;;;;;;;;;;6.30;99.90;;;;;;5040167;28;19969;-78
2022/03/28 02:57:16;;;;;;;;;;;6.30;99.90;;;;;;5040021;28;19925;-77
2022/03/28 02:59:41;;;;;;;;;;;6.30;99.90;;;;;;5055400;28;20025;-77
2022/03/28 03:02:07;;;;;;;;;;;6.20;99.90;;;;;;5048433;28;19920;-77
2022/03/28 03:04:33;;;;;;;;;;;6.20;99.90;;;;;;5056087;28;20382;-77
2022/03/28 03:06:58;;;;;;;;;;;6.10;99.90;;;;;;5038811;28;19925;-77
2022/03/28 03:09:24;;;;;;;;;;;6.10;99.90;;;;;;5056114;28;19921;-77
2022/03/28 03:11:49;;;;;;;;;;;6.10;99.90;;;;;;5056342;28;20389;-77
2022/03/28 03:14:15;;;;;;;;;;;6.10;99.90;;;;;;5037678;28;19924;-77
2022/03/28 03:16:40;;;;;;;;;;;6.10;99.90;;;;;;5049111;28;19927;-77
2022/03/28 03:19:06;;;;;;;;;;;6.10;99.90;;;;;;5055099;28;19978;-77
2022/03/28 03:21:31;;;;;;;;;;;6.10;99.90;;;;;;5056499;28;20335;-77
2022/03/28 03:23:57;;;;;;;;;;;6.10;99.90;;;;;;5040190;28;19974;-77
2022/03/28 03:26:22;;;;;;;;;;;6.20;99.90;;;;;;5056305;28;19921;-77
2022/03/28 03:28:48;;;;;;;;;;;6.10;99.90;;;;;;5056155;28;19924;-77
2022/03/28 03:31:13;;;;;;;;;;;6.20;99.90;;;;;;5047667;28;20011;-77
2022/03/28 03:33:39;;;;;;;;;;;6.20;99.90;;;;;;5054138;28;19982;-76
2022/03/28 03:36:06;;;;;;;;;;;6.20;99.90;;;;;;5056181;28;19920;-77
2022/03/28 03:38:31;;;;;;;;;;;6.10;99.90;;;;;;5055975;28;19925;-78
2022/03/28 03:40:57;;;;;;;;;;;6.20;99.90;;;;;;5055724;28;19927;-77
2022/03/28 03:43:24;;;;;;;;;;;6.10;99.90;;;;;;5055896;28;19920;-77
2022/03/28 03:45:49;;;;;;;;;;;6.10;99.90;;;;;;5056190;28;20016;-77
2022/03/28 03:48:15;;;;;;;;;;;6.10;99.90;;;;;;5052094;28;20003;-77
2022/03/28 03:50:41;;;;;;;;;;;6.10;99.90;;;;;;5039838;28;19924;-77
2022/03/28 03:53:07;;;;;;;;;;;6.00;99.90;;;;;;5056396;28;19925;-77
2022/03/28 03:55:33;;;;;;;;;;;6.00;99.90;;;;;;5056073;28;20350;-78
2022/03/28 03:57:58;;;;;;;;;;;6.00;99.90;;;;;;5056175;28;20294;-77
2022/03/28 04:00:24;;;;;;;;;;;6.00;99.90;;;;;;5054677;28;19921;-77
2022/03/28 04:02:50;;;;;;;;;;;5.90;99.90;;;;;;5037799;28;19943;-77
2022/03/28 04:05:16;;;;;;;;;;;5.90;99.90;;;;;;5055539;28;19928;-77
2022/03/28 04:07:42;;;;;;;;;;;5.90;99.90;;;;;;5055324;28;19927;-77
2022/03/28 04:10:07;;;;;;;;;;;5.90;99.90;;;;;;5055382;28;19920;-77
2022/03/28 04:12:33;;;;;;;;;;;6.00;99.90;;;;;;5055533;28;20054;-77
2022/03/28 04:15:00;;;;;;;;;;;6.00;99.90;;;;;;5055590;28;19931;-77
2022/03/28 04:17:29;;;;;;;;;;;6.00;99.90;;;;;;5052711;28;20461;-78
2022/03/28 04:19:55;;;;;;;;;;;6.00;99.90;;;;;;5055101;28;19926;-77
2022/03/28 04:22:20;;;;;;;;;;;6.00;99.90;;;;;;5054913;28;20011;-76
2022/03/28 04:24:46;;;;;;;;;;;6.00;99.90;;;;;;5038570;28;19920;-77
2022/03/28 04:27:12;;;;;;;;;;;6.10;99.90;;;;;;5054752;28;19974;-77
2022/03/28 04:29:37;;;;;;;;;;;6.10;99.90;;;;;;5055864;28;19921;-76
2022/03/28 04:32:03;;;;;;;;;;;6.10;99.90;;;;;;5045821;28;19925;-77
2022/03/28 04:34:28;;;;;;;;;;;6.00;99.90;;;;;;5054941;28;19924;-77
2022/03/28 04:36:54;;;;;;;;;;;6.00;99.90;;;;;;5055227;28;19921;-76
2022/03/28 04:39:19;;;;;;;;;;;6.00;99.90;;;;;;5053940;28;19924;-77
2022/03/28 04:41:44;;;;;;;;;;;6.10;99.90;;;;;;5038379;28;20306;-78
2022/03/28 04:44:10;;;;;;;;;;;6.10;99.90;;;;;;5054730;28;19928;-77
2022/03/28 04:46:36;;;;;;;;;;;6.00;99.90;;;;;;5047094;28;20286;-77
2022/03/28 04:49:01;;;;;;;;;;;6.00;99.90;;;;;;5029209;28;19927;-78
2022/03/28 04:51:27;;;;;;;;;;;6.00;99.90;;;;;;5055641;28;20019;-77
2022/03/28 04:53:52;;;;;;;;;;;6.00;99.90;;;;;;5038661;28;20007;-78
2022/03/28 04:56:18;;;;;;;;;;;6.00;99.90;;;;;;5038799;28;19927;-78
2022/03/28 04:58:43;;;;;;;;;;;6.00;99.90;;;;;;5038111;28;19924;-78
2022/03/28 05:01:08;;;;;;;;;;;6.00;99.90;;;;;;5037958;28;19924;-78
2022/03/28 05:03:34;;;;;;;;;;;5.90;99.90;;;;;;5038038;28;19928;-78
2022/03/28 05:06:00;;;;;;;;;;;6.00;99.90;;;;;;5054635;28;19968;-79
2022/03/28 05:08:25;;;;;;;;;;;6.00;99.90;;;;;;5054549;28;19920;-78
2022/03/28 05:10:50;;;;;;;;;;;5.90;99.90;;;;;;5049475;28;19974;-78
2022/03/28 05:13:16;;;;;;;;;;;5.90;99.90;;;;;;5037553;28;19927;-78
2022/03/28 05:15:41;;;;;;;;;;;5.90;99.90;;;;;;5053751;28;20337;-78
2022/03/28 05:18:07;;;;;;;;;;;5.90;99.90;;;;;;5054186;28;19931;-78
2022/03/28 05:20:32;;;;;;;;;;;5.90;99.90;;;;;;5054285;28;19927;-78
2022/03/28 05:22:58;;;;;;;;;;;5.90;99.90;;;;;;5054177;28;20144;-78
2022/03/28 05:25:23;;;;;;;;;;;5.90;99.90;;;;;;5053990;28;19920;-78
2022/03/28 05:27:49;;;;;;;;;;;5.90;99.90;;;;;;5037270;28;19920;-78
2022/03/28 05:30:15;;;;;;;;;;;5.80;99.90;;;;;;5053601;28;19920;-78
2022/03/28 05:32:42;;;;;;;;;;;5.70;99.90;;;;;;5053811;28;19974;-79
2022/03/28 05:35:08;;;;;;;;;;;5.70;99.90;;;;;;5054591;28;19944;-78
2022/03/28 05:37:34;;;;;;;;;;;5.70;99.90;;;;;;5054026;28;20382;-78
2022/03/28 05:40:00;;;;;;;;;;;5.70;99.90;;;;;;5053983;28;20000;-78
2022/03/28 05:42:25;;;;;;;;;;;5.70;99.90;;;;;;5054529;28;20293;-79
2022/03/28 05:44:51;;;;;;;;;;;5.80;99.90;;;;;;5054489;28;19920;-77
2022/03/28 05:47:16;;;;;;;;;;;5.80;99.90;;;;;;5053711;28;19963;-78
2022/03/28 05:49:42;;;;;;;;;;;5.80;99.90;;;;;;5053832;28;19920;-78
2022/03/28 05:52:08;;;;;;;;;;;5.70;99.90;;;;;;5037817;28;19921;-79
2022/03/28 05:54:34;;;;;;;;;;;5.70;99.90;;;;;;5053855;28;20011;-78
2022/03/28 05:56:59;;;;;;;;;;;5.70;99.90;;;;;;5054067;28;20030;-78
2022/03/28 05:59:25;;;;;;;;;;;5.60;99.90;;;;;;5054118;28;20408;-78
2022/03/28 06:01:51;;;;;;;;;;;5.60;99.90;;;;;;5054067;28;19943;-78
2022/03/28 06:04:17;;;;;;;;;;;5.60;99.90;;;;;;5053843;28;19988;-78
2022/03/28 06:06:43;;;;;;;;;;;5.60;99.90;;;;;;5053940;28;19927;-78
2022/03/28 06:09:08;;;;;;;;;;;5.60;99.90;;;;;;5053799;28;20128;-80
2022/03/28 06:11:34;;;;;;;;;;;5.70;99.90;;;;;;5053765;28;19925;-79
2022/03/28 06:14:01;;;;;;;;;;;5.70;99.90;;;;;;5053861;28;19920;-79
2022/03/28 06:16:26;;;;;;;;;;;5.70;99.90;;;;;;5053464;28;20244;-79
2022/03/28 06:18:52;;;;;;;;;;;5.70;99.90;;;;;;5053979;28;19935;-79
2022/03/28 06:21:18;;;;;;;;;;;5.70;99.90;;;;;;5053391;28;19921;-79
2022/03/28 06:23:43;;;;;;;;;;;5.70;99.90;;;;;;5053328;28;19921;-80
2022/03/28 06:26:12;;;;;;;;;;;5.80;99.90;;;;;;5053988;28;20329;-78
2022/03/28 06:28:41;;;;;;;;;;;5.80;99.90;;;;;;5053810;28;19971;-79
2022/03/28 06:31:07;;;;;;;;;;;5.90;99.90;;;;;;5053859;28;20298;-78
2022/03/28 06:33:33;;;;;;;;;;;5.80;99.90;;;;;;5054079;28;19927;-78
2022/03/28 06:35:58;;;;;;;;;;;5.90;99.90;;;;;;5053111;28;19943;-79
2022/03/28 06:38:24;;;;;;;;;;;5.90;99.90;;;;;;5053053;28;20032;-79
2022/03/28 06:40:49;;;;;;;;;;;5.90;99.90;;;;;;5053658;28;20314;-78
2022/03/28 06:43:15;;;;;;;;;;;6.00;99.90;;;;;;5056988;28;19940;-79
2022/03/28 06:45:40;;;;;;;;;;;6.10;99.90;;;;;;5056568;28;19949;-79
2022/03/28 06:48:06;;;;;;;;;;;6.10;99.90;;;;;;5056727;28;19920;-78
2022/03/28 06:50:34;;;;;;;;;;;6.10;99.90;;;;;;5056540;28;19920;-79
2022/03/28 06:53:00;;;;;;;;;;;6.10;99.90;;;;;;5056748;28;19950;-78
2022/03/28 06:55:26;;;;;;;;;;;6.10;99.90;;;;;;5056545;28;19925;-79
2022/03/28 06:57:52;;;;;;;;;;;6.10;99.90;;;;;;5056599;28;19924;-79
2022/03/28 07:00:17;;;;;;;;;;;6.10;99.90;;;;;;5056795;28;20294;-79
2022/03/28 07:02:43;;;;;;;;;;;6.10;99.90;;;;;;5040305;28;19921;-79
2022/03/28 07:05:09;;;;;;;;;;;6.10;99.90;;;;;;5056816;28;20016;-79
2022/03/28 07:07:38;;;;;;;;;;;6.00;99.90;;;;;;5056364;28;19920;-78
2022/03/28 07:10:04;;;;;;;;;;;6.00;99.90;;;;;;5056830;28;19927;-79
2022/03/28 07:12:29;;;;;;;;;;;6.10;99.90;;;;;;5056770;28;19920;-79
2022/03/28 07:14:55;;;;;;;;;;;6.10;99.90;;;;;;5056115;28;19927;-79
2022/03/28 07:17:20;;;;;;;;;;;6.10;99.90;;;;;;5039452;28;19954;-79
2022/03/28 07:19:46;;;;;;;;;;;6.10;99.90;;;;;;5056266;28;19929;-79
2022/03/28 07:22:12;;;;;;;;;;;6.10;99.90;;;;;;5055880;28;19921;-79
2022/03/28 07:24:38;;;;;;;;;;;6.10;99.90;;;;;;5056116;28;19920;-79
2022/03/28 07:27:03;;;;;;;;;;;6.10;99.90;;;;;;5055557;28;19921;-79
2022/03/28 07:29:29;;;;;;;;;;;6.10;99.90;;;;;;5055659;28;19925;-79
2022/03/28 07:31:56;;;;;;;;;;;6.10;99.90;;;;;;5055305;28;20325;-79
2022/03/28 07:34:32;;;;;;;;;;;6.20;99.90;;;;;;5055607;28;19921;-79
2022/03/28 07:36:58;;;;;;;;;;;6.20;99.90;;;;;;5055474;28;20319;-79
2022/03/28 07:39:23;;;;;;;;;;;6.30;99.90;;;;;;5055936;28;19971;-79
2022/03/28 07:41:49;;;;;;;;;;;6.30;99.90;;;;;;5038723;28;20385;-79
2022/03/28 07:44:15;;;;;;;;;;;6.30;99.90;;;;;;5056040;28;20252;-79
2022/03/28 07:46:41;;;;;;;;;;;6.20;99.90;;;;;;5055458;28;19928;-79
2022/03/28 07:49:10;;;;;;;;;;;6.20;99.90;;;;;;5055586;28;19928;-79
2022/03/28 07:51:35;;;;;;;;;;;6.30;99.90;;;;;;5055706;28;19921;-79
2022/03/28 07:54:01;;;;;;;;;;;6.30;99.90;;;;;;5038659;28;19990;-79
2022/03/28 07:56:27;;;;;;;;;;;6.40;99.90;;;;;;5055320;28;19944;-79
2022/03/28 07:58:52;;;;;;;;;;;6.40;99.90;;;;;;5055699;28;20366;-79
2022/03/28 08:01:18;;;;;;;;;;;6.50;99.90;;;;;;5055216;28;20405;-79
2022/03/28 08:03:43;;;;;;;;;;;6.50;99.90;;;;;;5055369;28;19920;-79
2022/03/28 08:06:09;;;;;;;;;;;6.50;99.90;;;;;;5054922;28;20026;-77
2022/03/28 08:08:35;;;;;;;;;;;6.50;99.90;;;;;;5039103;28;20321;-78
2022/03/28 08:11:01;;;;;;;;;;;6.40;99.90;;;;;;5055345;28;19968;-77
2022/03/28 08:13:26;;;;;;;;;;;6.40;99.90;;;;;;5055368;28;19967;-77
2022/03/28 08:15:52;;;;;;;;;;;6.50;99.90;;;;;;5054928;28;19927;-78
2022/03/28 08:18:17;;;;;;;;;;;6.50;99.90;;;;;;5038456;28;19931;-77
2022/03/28 08:20:43;;;;;;;;;;;6.50;99.90;;;;;;5054622;28;19928;-78
2022/03/28 08:23:09;;;;;;;;;;;6.50;99.90;;;;;;5054639;28;19932;-77
2022/03/28 08:25:34;;;;;;;;;;;6.50;99.90;;;;;;5055218;28;19955;-80
2022/03/28 08:28:00;;;;;;;;;;;6.60;99.90;;;;;;5055321;28;19921;-79
2022/03/28 08:30:25;;;;;;;;;;;6.60;99.90;;;;;;5054999;28;19920;-79
2022/03/28 08:32:51;;;;;;;;;;;6.70;99.90;;;;;;5038756;28;20303;-79
2022/03/28 08:35:16;;;;;;;;;;;6.70;99.90;;;;;;5055183;28;19920;-78
2022/03/28 08:37:42;;;;;;;;;;;6.70;99.90;;;;;;5055255;28;19928;-79
2022/03/28 08:40:08;;;;;;;;;;;6.70;99.90;;;;;;5054473;28;19924;-79
2022/03/28 08:42:34;;;;;;;;;;;6.70;99.90;;;;;;5038344;28;19920;-79
2022/03/28 08:44:59;;;;;;;;;;;6.70;99.90;;;;;;5054984;28;19925;-76
2022/03/28 08:47:26;;;;;;;;;;;6.70;99.90;;;;;;5054724;28;19920;-76
2022/03/28 08:49:53;;;;;;;;;;;6.80;99.90;;;;;;5038481;28;20434;-76
2022/03/28 08:52:20;;;;;;;;;;;7.00;99.90;;;;;;5055011;28;20382;-76
2022/03/28 08:54:46;;;;;;;;;;;7.00;99.90;;;;;;5055196;28;19920;-76
2022/03/28 08:57:13;;;;;;;;;;;7.10;99.90;;;;;;5053868;28;19927;-76
2022/03/28 08:59:38;;;;;;;;;;;7.20;99.90;;;;;;5037902;28;20027;-76
2022/03/28 09:02:04;;;;;;;;;;;7.30;99.90;;;;;;5054326;28;20015;-76
2022/03/28 09:04:29;;;;;;;;;;;7.20;99.90;;;;;;5054266;28;20267;-77
2022/03/28 09:06:56;;;;;;;;;;;7.20;99.90;;;;;;5053971;28;20399;-77
2022/03/28 09:09:32;;;;;;;;;;;7.30;99.90;;;;;;5054447;28;19921;-77
2022/03/28 09:11:58;;;;;;;;;;;7.50;99.90;;;;;;5037837;28;20274;-77
2022/03/28 09:14:32;;;;;;;;;;;7.60;99.90;;;;;;5053780;28;19927;-77
2022/03/28 09:16:59;;;;;;;;;;;7.70;99.90;;;;;;5053848;28;19989;-77
2022/03/28 09:19:24;;;;;;;;;;;7.80;99.90;;;;;;5054134;28;19924;-77
2022/03/28 09:21:50;;;;;;;;;;;7.80;99.90;;;;;;5054409;28;19921;-77
2022/03/28 09:24:15;;;;;;;;;;;7.80;99.90;;;;;;5054199;28;19920;-77
2022/03/28 09:26:41;;;;;;;;;;;7.70;99.90;;;;;;5054230;28;19977;-77
2022/03/28 09:29:06;;;;;;;;;;;7.70;99.90;;;;;;5054102;28;19927;-76
2022/03/28 09:31:32;;;;;;;;;;;7.70;99.90;;;;;;5053967;28;20302;-77
2022/03/28 09:33:57;;;;;;;;;;;7.70;99.90;;;;;;5054008;28;20345;-77
2022/03/28 09:36:33;;;;;;;;;;;7.70;99.90;;;;;;5053381;28;19928;-77
2022/03/28 09:38:58;;;;;;;;;;;7.70;99.90;;;;;;5053720;28;20384;-77
2022/03/28 09:41:24;;;;;;;;;;;7.70;99.90;;;;;;5053399;28;19963;-77
2022/03/28 09:43:56;;;;;;;;;;;7.70;99.90;;;;;;5053626;28;20316;-77
2022/03/28 09:46:25;;;;;;;;;;;7.80;99.90;;;;;;5053376;28;19920;-76
2022/03/28 09:48:51;;;;;;;;;;;8.00;99.90;;;;;;5053585;28;19920;-77
2022/03/28 09:51:18;;;;;;;;;;;8.10;99.90;;;;;;5053857;28;19920;-77
2022/03/28 09:53:43;;;;;;;;;;;8.10;99.90;;;;;;5053807;28;20283;-77
2022/03/28 09:56:10;;;;;;;;;;;8.20;99.90;;;;;;5036562;28;19978;-77
2022/03/28 09:58:50;;;;;;;;;;;8.30;99.90;;;;;;5053659;28;19924;-77
2022/03/28 10:01:27;;;;;;;;;;;8.20;99.90;;;;;;5053704;28;19928;-77
2022/03/28 10:04:00;;;;;;;;;;;8.20;99.90;;;;;;5054220;28;19990;-78
2022/03/28 10:06:27;;;;;;;;;;;8.20;99.90;;;;;;5053885;28;19927;-77
2022/03/28 10:08:52;;;;;;;;;;;8.30;99.90;;;;;;5054190;28;19921;-77
2022/03/28 10:11:18;;;;;;;;;;;8.40;99.90;;;;;;5054131;28;20250;-77
2022/03/28 10:13:44;;;;;;;;;;;8.50;99.90;;;;;;5053559;28;20383;-77
2022/03/28 10:16:09;;;;;;;;;;;8.60;99.90;;;;;;5054788;28;19925;-77
2022/03/28 10:18:36;;;;;;;;;;;8.70;99.90;;;;;;5057360;28;19925;-77
2022/03/28 10:21:07;;;;;;;;;;;8.60;99.90;;;;;;5057497;28;19960;-77
2022/03/28 10:23:37;;;;;;;;;;;8.60;99.90;;;;;;5057783;28;20070;-77
2022/03/28 10:26:04;;;;;;;;;;;8.80;99.90;;;;;;5056809;28;20000;-77
2022/03/28 10:28:29;;;;;;;;;;;8.90;99.90;;;;;;5057644;28;20112;-77
2022/03/28 10:31:14;;;;;;;;;;;9.00;99.90;;;;;;5118308;23;19947;-79
2022/03/28 10:33:58;;;;;;;;;;;9.00;99.90;;;;;;5083226;28;19928;-78
2022/03/28 10:36:44;;;;;;;;;;;9.00;99.90;;;;;;5083842;28;19973;-78
2022/03/28 10:39:29;;;;;;;;;;;9.10;99.90;;;;;;5093532;28;19935;-78
2022/03/28 10:42:03;;;;;;;;;;;9.20;99.90;;;;;;5073037;28;19971;-78
2022/03/28 10:45:19;;;;;;;;;;;9.30;99.90;;;;;;5073778;28;20263;-78
2022/03/28 10:47:56;;;;;;;;;;;9.40;99.90;;;;;;5072700;28;19924;-77
2022/03/28 10:50:29;;;;;;;;;;;9.30;99.90;;;;;;5090364;28;19920;-76
2022/03/28 10:53:09;;;;;;;;;;;9.40;99.90;;;;;;5072931;28;19920;-77
2022/03/28 10:55:37;;;;;;;;;;;9.50;99.90;;;;;;5072592;28;20386;-76
2022/03/28 10:58:16;;;;;;;;;;;9.50;99.90;;;;;;5056080;28;19924;-77
2022/03/28 11:01:11;;;;;;;;;;;9.60;99.90;;;;;;5072615;28;20014;-77
2022/03/28 11:03:58;;;;;;;;;;;9.70;99.90;;;;;;5072310;28;19947;-77
2022/03/28 11:06:42;;;;;;;;;;;9.80;99.90;;;;;;5061388;28;19956;-77
2022/03/28 11:09:07;;;;;;;;;;;10.00;99.90;;;;;;5035656;28;20015;-77
2022/03/28 11:11:36;;;;;;;;;;;9.80;99.90;;;;;;5052185;28;20007;-77
2022/03/28 11:17:29;;;;;;;;;;;9.90;99.90;;;;;;5033953;28;19929;-77
2022/03/28 11:27:15;;;;;;;;;;;10.10;99.90;;;;;;4990840;28;20449;-77
2022/03/28 11:29:58;;;;;;;;;;;10.20;99.90;;;;;;5050240;28;19932;-77
2022/03/28 11:32:24;;;;;;;;;;;10.40;99.90;;;;;;5052246;28;19920;-77
2022/03/28 11:34:51;;;;;;;;;;;10.50;99.90;;;;;;5071916;28;19940;-77
2022/03/28 11:37:17;;;;;;;;;;;10.60;99.90;;;;;;5071689;28;19920;-77
2022/03/28 11:40:24;;;;;;;;;;;10.80;99.90;;;;;;5070418;28;19972;-77
2022/03/28 11:42:54;;;;;;;;;;;11.00;99.90;;;;;;5066084;28;19920;-79
2022/03/28 11:45:20;;;;;;;;;;;11.00;99.90;;;;;;5074932;28;19931;-79
2022/03/28 11:47:50;;;;;;;;;;;11.30;99.90;;;;;;5074433;28;19927;-79
2022/03/28 11:50:16;;;;;;;;;;;11.70;99.90;;;;;;5075005;28;19943;-79
2022/03/28 11:52:47;;;;;;;;;;;11.90;99.90;;;;;;5074660;28;19970;-80
2022/03/28 11:55:22;;;;;;;;;;;12.20;99.90;;;;;;5074965;28;19920;-79
2022/03/28 12:00:47;;;;;;;;;;;12.70;99.90;;;;;;5074934;28;19932;-79
2022/03/28 12:03:14;;;;;;;;;;;12.60;99.90;;;;;;5072477;28;19920;-77
2022/03/28 12:05:46;;;;;;;;;;;12.60;99.90;;;;;;5071443;28;19956;-78
2022/03/28 12:08:16;;;;;;;;;;;12.30;99.90;;;;;;5071383;28;20359;-77
2022/03/28 12:10:57;;;;;;;;;;;12.00;99.90;;;;;;5071389;28;19927;-77
2022/03/28 12:13:37;;;;;;;;;;;11.90;99.90;;;;;;5071164;28;19921;-78
2022/03/28 12:16:09;;;;;;;;;;;12.30;99.90;;;;;;5043396;28;19921;-80
2022/03/28 12:18:37;;;;;;;;;;;13.10;99.90;;;;;;5052379;28;19931;-77
2022/03/28 12:21:08;;;;;;;;;;;13.80;99.90;;;;;;5051155;28;19920;-77
2022/03/28 12:23:38;;;;;;;;;;;14.30;99.90;;;;;;5034629;28;19968;-77
2022/03/28 12:26:04;;;;;;;;;;;14.70;99.90;;;;;;5050996;28;20285;-77
2022/03/28 12:28:45;;;;;;;;;;;15.00;99.90;;;;;;5051147;28;19955;-78
2022/03/28 12:31:16;;;;;;;;;;;15.40;99.90;;;;;;5050828;28;20397;-77
2022/03/28 12:34:02;;;;;;;;;;;15.80;99.90;;;;;;5045006;28;20380;-77
2022/03/28 12:36:28;;;;;;;;;;;15.60;99.90;;;;;;5050704;28;20351;-77
2022/03/28 12:39:06;;;;;;;;;;;15.30;99.90;;;;;;5049904;28;19935;-78
2022/03/28 12:41:42;;;;;;;;;;;14.90;99.90;;;;;;5050883;28;19978;-77
2022/03/28 12:44:23;;;;;;;;;;;14.90;99.90;;;;;;5052725;28;19964;-79
2022/03/28 12:46:48;;;;;;;;;;;15.20;99.90;;;;;;5054733;28;19939;-79
2022/03/28 12:49:23;;;;;;;;;;;15.60;99.90;;;;;;5054958;28;19929;-79
2022/03/28 12:51:49;;;;;;;;;;;15.50;99.90;;;;;;5055483;28;19925;-79
2022/03/28 12:54:21;;;;;;;;;;;15.40;99.90;;;;;;5055114;28;20275;-79
2022/03/28 12:56:53;;;;;;;;;;;15.30;99.90;;;;;;5053985;28;19921;-79
2022/03/28 12:59:26;;;;;;;;;;;15.50;99.90;;;;;;5054581;28;20007;-79
2022/03/28 13:02:08;;;;;;;;;;;15.70;99.90;;;;;;5056945;28;19927;-79
2022/03/28 13:04:43;;;;;;;;;;;15.80;99.90;;;;;;5056246;28;20195;-79
2022/03/28 13:07:10;;;;;;;;;;;16.20;99.90;;;;;;5056456;28;19920;-79
2022/03/28 13:09:38;;;;;;;;;;;16.50;99.90;;;;;;5058390;28;20672;-79
2022/03/28 13:12:08;;;;;;;;;;;16.30;94.50;;;;;;5039826;28;20019;-79
2022/03/28 13:14:38;;;;;;;;;;;15.70;98.40;;;;;;5054487;28;19920;-79
2022/03/28 13:20:05;;;;;;;;;;;15.90;99.90;;;;;;5054429;28;20059;-79
2022/03/28 13:22:38;;;;;;;;;;;15.90;99.90;;;;;;5073159;28;20379;-79
2022/03/28 13:28:14;;;;;;;;;;;15.30;99.90;;;;;;5069671;28;20390;-79
2022/03/28 13:30:47;;;;;;;;;;;15.30;99.90;;;;;;5067475;28;19924;-79
2022/03/28 13:33:17;;;;;;;;;;;15.20;99.90;;;;;;5063569;28;19990;-79
2022/03/28 13:35:44;;;;;;;;;;;14.90;99.90;;;;;;5064464;28;20027;-79
2022/03/28 13:38:11;;;;;;;;;;;15.10;99.90;;;;;;5066252;28;19924;-79
2022/03/28 13:40:37;;;;;;;;;;;15.10;99.90;;;;;;5064949;28;20003;-79
2022/03/28 13:43:12;;;;;;;;;;;15.70;99.90;;;;;;5067572;28;19958;-79
2022/03/28 13:45:47;;;;;;;;;;;16.20;99.90;;;;;;5063291;28;19954;-80
2022/03/28 13:48:16;;;;;;;;;;;16.80;97.80;;;;;;5065288;28;19924;-80
2022/03/28 13:50:43;;;;;;;;;;;17.20;94.20;;;;;;5068618;28;19927;-80
2022/03/28 13:53:10;;;;;;;;;;;17.70;89.90;;;;;;5073115;28;19966;-80
2022/03/28 13:58:43;;;;;;;;;;;17.60;77.50;;;;;;5070648;28;20007;-80
2022/03/28 14:01:18;;;;;;;;;;;17.60;85.20;;;;;;5072815;28;19956;-80
2022/03/28 14:03:51;;;;;;;;;;;17.90;82.30;;;;;;5068202;28;19920;-80
2022/03/28 14:06:16;;;;;;;;;;;17.80;75.20;;;;;;5054496;28;19973;-80
2022/03/28 14:08:53;;;;;;;;;;;17.90;80.50;;;;;;5072047;28;20082;-80
2022/03/28 14:11:20;;;;;;;;;;;17.80;75.70;;;;;;5075889;28;19920;-80
2022/03/28 14:13:46;;;;;;;;;;;17.60;75.10;;;;;;5059302;28;19928;-80
2022/03/28 14:16:15;;;;;;;;;;;17.70;79.00;;;;;;5072753;28;20360;-81
2022/03/28 14:18:59;;;;;;;;;;;;;;;;;;;;;
2022/03/28 14:21:25;;;;;;;;;;;17.80;83.00;;;;;;5075463;28;19921;-81
2022/03/28 14:23:53;;;;;;;;;;;18.50;73.10;;;;;;5073025;28;20767;-81
2022/03/28 14:26:20;;;;;;;;;;;18.40;71.40;;;;;;5077834;28;20358;-81
2022/03/28 14:28:46;;;;;;;;;;;18.40;70.90;;;;;;5057261;28;19921;-81
2022/03/28 14:31:12;;;;;;;;;;;18.30;67.80;;;;;;5077258;28;19927;-81
2022/03/28 14:33:38;;;;;;;;;;;17.90;76.00;;;;;;5075431;28;20117;-81
2022/03/28 14:36:08;;;;;;;;;;;17.80;79.40;;;;;;5077761;28;19952;-82
2022/03/28 14:38:36;;;;;;;;;;;17.80;79.20;;;;;;5076641;28;19924;-81
2022/03/28 14:41:03;;;;;;;;;;;17.80;76.90;;;;;;5056957;28;19935;-82
2022/03/28 14:43:29;;;;;;;;;;;18.00;82.70;;;;;;5079462;28;19966;-82
2022/03/28 14:48:44;;;;;;;;;;;18.20;71.70;;;;;;5077445;28;20099;-81
2022/03/28 14:51:11;;;;;;;;;;;17.60;78.10;;;;;;5078361;28;20760;-82
2022/03/28 14:53:36;;;;;;;;;;;17.10;88.90;;;;;;5061452;28;19943;-81
2022/03/28 14:56:02;;;;;;;;;;;16.50;96.80;;;;;;5076545;28;19921;-81
2022/03/28 14:58:30;;;;;;;;;;;16.20;98.80;;;;;;5075209;28;19991;-81
2022/03/28 15:00:55;;;;;;;;;;;16.00;99.90;;;;;;5074729;28;20397;-81